sensor_id;sensor_type;location;lat;lon;timestamp;pressure;altitude;pressure_sealevel;temperature;humidity
52291;BME280;39663;45.432;28.050;2023-04-27T00:02:32;100802.63;;;11.33;39.07
52291;BME280;39663;45.432;28.050;2023-04-27T00:03:04;100813.64;;;11.47;43.36
52291;BME280;39663;45.432;28.050;2023-04-27T00:03:40;100806.79;;;10.97;44.82
52291;BME280;39663;45.432;28.050;2023-04-27T00:04:12;100809.54;;;11.05;43.48
52291;BME280;39663;45.432;28.050;2023-04-27T00:04:45;100812.83;;;11.07;44.41
52291;BME280;39663;45.432;28.050;2023-04-27T00:05:17;100808.50;;;11.46;42.30
52291;BME280;39663;45.432;28.050;2023-04-27T00:05:50;100807.60;;;11.20;41.98
52291;BME280;39663;45.432;28.050;2023-04-27T00:06:29;100805.19;;;11.05;41.31
52291;BME280;39663;45.432;28.050;2023-04-27T00:07:02;100803.15;;;11.27;41.94
52291;BME280;39663;45.432;28.050;2023-04-27T00:07:35;100812.31;;;11.36;42.42
52291;BME280;39663;45.432;28.050;2023-04-27T00:08:08;100806.22;;;11.53;41.87
52291;BME280;39663;45.432;28.050;2023-04-27T00:08:41;100805.55;;;11.51;41.97
52291;BME280;39663;45.432;28.050;2023-04-27T00:09:14;100811.62;;;11.70;42.18
52291;BME280;39663;45.432;28.050;2023-04-27T00:09:46;100812.60;;;11.74;42.09
52291;BME280;39663;45.432;28.050;2023-04-27T00:10:18;100808.81;;;12.16;41.41
52291;BME280;39663;45.432;28.050;2023-04-27T00:10:52;100810.20;;;11.30;42.70
52291;BME280;39663;45.432;28.050;2023-04-27T00:11:24;100811.74;;;11.71;41.71
52291;BME280;39663;45.432;28.050;2023-04-27T00:11:56;100800.68;;;11.65;42.14
52291;BME280;39663;45.432;28.050;2023-04-27T00:12:28;100807.62;;;11.53;38.74
52291;BME280;39663;45.432;28.050;2023-04-27T00:13:00;100810.88;;;11.11;37.85
52291;BME280;39663;45.432;28.050;2023-04-27T00:13:33;100810.02;;;11.45;40.51
52291;BME280;39663;45.432;28.050;2023-04-27T00:14:05;100814.24;;;11.43;38.46
52291;BME280;39663;45.432;28.050;2023-04-27T00:14:37;100817.94;;;10.68;42.20
52291;BME280;39663;45.432;28.050;2023-04-27T00:15:10;100810.56;;;10.38;39.59
52291;BME280;39663;45.432;28.050;2023-04-27T00:15:43;100808.73;;;11.26;40.28
52291;BME280;39663;45.432;28.050;2023-04-27T00:16:16;100812.37;;;11.49;43.59
52291;BME280;39663;45.432;28.050;2023-04-27T00:16:48;100814.16;;;11.68;43.55
52291;BME280;39663;45.432;28.050;2023-04-27T00:17:20;100813.77;;;11.61;42.94
52291;BME280;39663;45.432;28.050;2023-04-27T00:17:52;100812.76;;;11.90;42.53
52291;BME280;39663;45.432;28.050;2023-04-27T00:18:24;100808.48;;;12.02;41.02
52291;BME280;39663;45.432;28.050;2023-04-27T00:18:56;100817.01;;;12.03;41.50
52291;BME280;39663;45.432;28.050;2023-04-27T00:19:28;100816.92;;;11.95;41.17
52291;BME280;39663;45.432;28.050;2023-04-27T00:20:00;100813.30;;;11.98;41.58
52291;BME280;39663;45.432;28.050;2023-04-27T00:20:32;100818.44;;;11.91;42.01
52291;BME280;39663;45.432;28.050;2023-04-27T00:21:04;100815.15;;;11.85;41.75
52291;BME280;39663;45.432;28.050;2023-04-27T00:21:35;100815.33;;;11.71;42.48
52291;BME280;39663;45.432;28.050;2023-04-27T00:22:07;100810.30;;;12.01;41.78
52291;BME280;39663;45.432;28.050;2023-04-27T00:22:38;100816.99;;;12.35;41.39
52291;BME280;39663;45.432;28.050;2023-04-27T00:23:09;100815.55;;;12.01;40.94
52291;BME280;39663;45.432;28.050;2023-04-27T00:23:41;100818.86;;;12.11;40.38
52291;BME280;39663;45.432;28.050;2023-04-27T00:24:12;100819.38;;;11.71;41.89
52291;BME280;39663;45.432;28.050;2023-04-27T00:24:44;100820.77;;;11.92;41.02
52291;BME280;39663;45.432;28.050;2023-04-27T00:25:15;100822.42;;;12.25;42.47
52291;BME280;39663;45.432;28.050;2023-04-27T00:25:47;100826.04;;;12.31;41.15
52291;BME280;39663;45.432;28.050;2023-04-27T00:26:18;100820.91;;;11.89;42.00
52291;BME280;39663;45.432;28.050;2023-04-27T00:26:49;100822.24;;;12.16;42.17
52291;BME280;39663;45.432;28.050;2023-04-27T00:27:20;100828.13;;;12.36;42.00
52291;BME280;39663;45.432;28.050;2023-04-27T00:27:52;100827.18;;;12.40;41.19
52291;BME280;39663;45.432;28.050;2023-04-27T00:28:23;100819.30;;;12.50;41.37
52291;BME280;39663;45.432;28.050;2023-04-27T00:28:55;100819.41;;;12.25;40.58
52291;BME280;39663;45.432;28.050;2023-04-27T00:29:26;100818.74;;;12.39;40.70
52291;BME280;39663;45.432;28.050;2023-04-27T00:29:58;100819.30;;;12.39;40.96
52291;BME280;39663;45.432;28.050;2023-04-27T00:30:29;100825.28;;;12.57;38.58
52291;BME280;39663;45.432;28.050;2023-04-27T00:31:00;100822.49;;;12.03;38.62
52291;BME280;39663;45.432;28.050;2023-04-27T00:31:32;100818.59;;;11.55;38.37
52291;BME280;39663;45.432;28.050;2023-04-27T00:32:03;100823.26;;;11.57;40.76
52291;BME280;39663;45.432;28.050;2023-04-27T00:32:35;100826.51;;;11.69;42.38
52291;BME280;39663;45.432;28.050;2023-04-27T00:33:06;100825.63;;;11.90;41.44
52291;BME280;39663;45.432;28.050;2023-04-27T00:33:38;100823.31;;;11.87;42.05
52291;BME280;39663;45.432;28.050;2023-04-27T00:34:09;100827.01;;;12.24;42.50
52291;BME280;39663;45.432;28.050;2023-04-27T00:34:41;100821.53;;;12.39;42.50
52291;BME280;39663;45.432;28.050;2023-04-27T00:35:12;100820.76;;;12.18;40.34
52291;BME280;39663;45.432;28.050;2023-04-27T00:35:43;100824.81;;;12.11;42.12
52291;BME280;39663;45.432;28.050;2023-04-27T00:36:15;100821.40;;;11.91;41.71
52291;BME280;39663;45.432;28.050;2023-04-27T00:36:46;100821.81;;;12.27;41.87
52291;BME280;39663;45.432;28.050;2023-04-27T00:37:17;100823.74;;;12.38;43.03
52291;BME280;39663;45.432;28.050;2023-04-27T00:37:49;100823.26;;;12.62;41.90
52291;BME280;39663;45.432;28.050;2023-04-27T00:38:20;100823.78;;;12.13;39.59
52291;BME280;39663;45.432;28.050;2023-04-27T00:38:52;100828.70;;;12.47;40.68
52291;BME280;39663;45.432;28.050;2023-04-27T00:39:23;100818.37;;;11.84;39.13
52291;BME280;39663;45.432;28.050;2023-04-27T00:39:55;100820.00;;;11.75;41.60
52291;BME280;39663;45.432;28.050;2023-04-27T00:40:26;100823.83;;;12.03;41.30
52291;BME280;39663;45.432;28.050;2023-04-27T00:41:00;100822.16;;;12.15;39.83
52291;BME280;39663;45.432;28.050;2023-04-27T00:41:35;100818.91;;;11.96;42.18
52291;BME280;39663;45.432;28.050;2023-04-27T00:42:06;100822.83;;;11.93;39.74
52291;BME280;39663;45.432;28.050;2023-04-27T00:42:38;100818.51;;;11.64;42.62
52291;BME280;39663;45.432;28.050;2023-04-27T00:43:09;100820.95;;;11.59;41.31
52291;BME280;39663;45.432;28.050;2023-04-27T00:43:42;100823.17;;;12.06;42.22
52291;BME280;39663;45.432;28.050;2023-04-27T00:44:21;100819.38;;;11.64;39.42
52291;BME280;39663;45.432;28.050;2023-04-27T00:44:53;100821.66;;;11.76;42.50
52291;BME280;39663;45.432;28.050;2023-04-27T00:45:24;100825.16;;;11.86;41.86
52291;BME280;39663;45.432;28.050;2023-04-27T00:45:56;100825.17;;;11.74;42.42
52291;BME280;39663;45.432;28.050;2023-04-27T00:46:28;100824.03;;;11.67;41.03
52291;BME280;39663;45.432;28.050;2023-04-27T00:46:59;100823.77;;;11.52;39.47
52291;BME280;39663;45.432;28.050;2023-04-27T00:47:31;100827.09;;;10.96;39.95
52291;BME280;39663;45.432;28.050;2023-04-27T00:48:03;100826.64;;;11.19;39.83
52291;BME280;39663;45.432;28.050;2023-04-27T00:48:35;100827.00;;;11.25;41.54
52291;BME280;39663;45.432;28.050;2023-04-27T00:49:07;100829.21;;;11.35;40.42
52291;BME280;39663;45.432;28.050;2023-04-27T00:49:39;100828.45;;;11.22;42.90
52291;BME280;39663;45.432;28.050;2023-04-27T00:50:11;100830.18;;;11.17;42.93
52291;BME280;39663;45.432;28.050;2023-04-27T00:50:42;100831.55;;;11.46;41.47
52291;BME280;39663;45.432;28.050;2023-04-27T00:51:14;100836.17;;;11.59;42.11
52291;BME280;39663;45.432;28.050;2023-04-27T00:51:46;100831.73;;;11.22;42.13
52291;BME280;39663;45.432;28.050;2023-04-27T00:52:17;100829.26;;;11.55;41.59
52291;BME280;39663;45.432;28.050;2023-04-27T00:52:49;100833.29;;;11.87;41.55
52291;BME280;39663;45.432;28.050;2023-04-27T00:53:20;100826.71;;;11.51;41.02
52291;BME280;39663;45.432;28.050;2023-04-27T00:53:52;100828.72;;;11.41;39.70
52291;BME280;39663;45.432;28.050;2023-04-27T00:54:24;100831.99;;;11.35;40.67
52291;BME280;39663;45.432;28.050;2023-04-27T00:54:56;100836.03;;;11.21;41.73
52291;BME280;39663;45.432;28.050;2023-04-27T00:55:28;100841.21;;;11.50;42.74
52291;BME280;39663;45.432;28.050;2023-04-27T00:55:59;100839.74;;;11.07;42.25
52291;BME280;39663;45.432;28.050;2023-04-27T00:56:31;100840.58;;;11.01;43.00
52291;BME280;39663;45.432;28.050;2023-04-27T00:57:02;100837.51;;;11.04;42.97
52291;BME280;39663;45.432;28.050;2023-04-27T00:57:34;100837.62;;;11.10;41.40
52291;BME280;39663;45.432;28.050;2023-04-27T00:58:05;100839.09;;;11.51;42.52
52291;BME280;39663;45.432;28.050;2023-04-27T00:58:37;100840.43;;;11.63;42.31
52291;BME280;39663;45.432;28.050;2023-04-27T00:59:08;100838.54;;;11.79;42.24
52291;BME280;39663;45.432;28.050;2023-04-27T00:59:40;100840.84;;;12.07;41.69
52291;BME280;39663;45.432;28.050;2023-04-27T01:00:12;100843.38;;;11.63;40.39
52291;BME280;39663;45.432;28.050;2023-04-27T01:00:43;100836.59;;;11.45;40.76
52291;BME280;39663;45.432;28.050;2023-04-27T01:01:15;100843.99;;;11.73;42.00
52291;BME280;39663;45.432;28.050;2023-04-27T01:01:47;100839.50;;;11.58;42.15
52291;BME280;39663;45.432;28.050;2023-04-27T01:02:18;100835.19;;;11.69;39.70
52291;BME280;39663;45.432;28.050;2023-04-27T01:02:51;100837.60;;;11.33;40.30
52291;BME280;39663;45.432;28.050;2023-04-27T01:03:23;100842.47;;;11.37;42.06
52291;BME280;39663;45.432;28.050;2023-04-27T01:03:55;100837.84;;;11.76;41.39
52291;BME280;39663;45.432;28.050;2023-04-27T01:04:26;100836.26;;;11.81;42.40
52291;BME280;39663;45.432;28.050;2023-04-27T01:04:58;100841.02;;;12.02;42.47
52291;BME280;39663;45.432;28.050;2023-04-27T01:05:31;100838.64;;;11.77;41.60
52291;BME280;39663;45.432;28.050;2023-04-27T01:06:02;100846.31;;;12.00;43.20
52291;BME280;39663;45.432;28.050;2023-04-27T01:06:34;100842.99;;;12.18;43.27
52291;BME280;39663;45.432;28.050;2023-04-27T01:07:05;100841.02;;;11.86;41.25
52291;BME280;39663;45.432;28.050;2023-04-27T01:07:37;100838.60;;;12.20;39.07
52291;BME280;39663;45.432;28.050;2023-04-27T01:08:09;100843.39;;;11.83;42.39
52291;BME280;39663;45.432;28.050;2023-04-27T01:08:40;100847.57;;;12.28;42.51
52291;BME280;39663;45.432;28.050;2023-04-27T01:09:12;100838.14;;;11.98;42.90
52291;BME280;39663;45.432;28.050;2023-04-27T01:09:43;100842.27;;;12.26;39.77
52291;BME280;39663;45.432;28.050;2023-04-27T01:10:15;100844.79;;;12.52;41.89
52291;BME280;39663;45.432;28.050;2023-04-27T01:10:46;100844.02;;;12.40;40.55
52291;BME280;39663;45.432;28.050;2023-04-27T01:11:17;100843.31;;;12.12;40.76
52291;BME280;39663;45.432;28.050;2023-04-27T01:11:49;100843.93;;;12.14;42.72
52291;BME280;39663;45.432;28.050;2023-04-27T01:12:20;100839.80;;;11.12;39.66
52291;BME280;39663;45.432;28.050;2023-04-27T01:12:52;100844.44;;;11.17;42.12
52291;BME280;39663;45.432;28.050;2023-04-27T01:13:23;100847.95;;;11.32;40.53
52291;BME280;39663;45.432;28.050;2023-04-27T01:13:55;100847.23;;;11.72;41.55
52291;BME280;39663;45.432;28.050;2023-04-27T01:14:27;100849.12;;;11.63;39.86
52291;BME280;39663;45.432;28.050;2023-04-27T01:14:58;100849.60;;;10.84;39.52
52291;BME280;39663;45.432;28.050;2023-04-27T01:15:30;100853.28;;;11.46;43.68
52291;BME280;39663;45.432;28.050;2023-04-27T01:16:02;100852.49;;;11.32;41.68
52291;BME280;39663;45.432;28.050;2023-04-27T01:16:35;100851.35;;;11.82;43.53
52291;BME280;39663;45.432;28.050;2023-04-27T01:17:06;100851.34;;;11.69;39.63
52291;BME280;39663;45.432;28.050;2023-04-27T01:17:38;100850.35;;;10.96;40.32
52291;BME280;39663;45.432;28.050;2023-04-27T01:18:09;100856.09;;;11.10;39.94
52291;BME280;39663;45.432;28.050;2023-04-27T01:18:41;100856.35;;;11.49;40.48
52291;BME280;39663;45.432;28.050;2023-04-27T01:19:12;100853.99;;;11.40;42.28
52291;BME280;39663;45.432;28.050;2023-04-27T01:19:44;100859.97;;;11.28;42.39
52291;BME280;39663;45.432;28.050;2023-04-27T01:20:15;100857.28;;;11.47;40.12
52291;BME280;39663;45.432;28.050;2023-04-27T01:20:47;100855.85;;;11.56;40.79
52291;BME280;39663;45.432;28.050;2023-04-27T01:21:18;100859.81;;;11.41;41.79
52291;BME280;39663;45.432;28.050;2023-04-27T01:21:49;100857.40;;;11.61;40.12
52291;BME280;39663;45.432;28.050;2023-04-27T01:22:21;100856.32;;;11.69;40.39
52291;BME280;39663;45.432;28.050;2023-04-27T01:22:53;100854.75;;;11.94;39.25
52291;BME280;39663;45.432;28.050;2023-04-27T01:23:24;100859.05;;;11.94;42.56
52291;BME280;39663;45.432;28.050;2023-04-27T01:23:56;100863.67;;;11.95;41.04
52291;BME280;39663;45.432;28.050;2023-04-27T01:24:27;100862.40;;;12.28;40.76
52291;BME280;39663;45.432;28.050;2023-04-27T01:24:58;100860.28;;;12.06;41.10
52291;BME280;39663;45.432;28.050;2023-04-27T01:25:30;100861.93;;;12.02;42.04
52291;BME280;39663;45.432;28.050;2023-04-27T01:26:01;100862.69;;;11.93;41.72
52291;BME280;39663;45.432;28.050;2023-04-27T01:26:33;100861.49;;;11.14;41.94
52291;BME280;39663;45.432;28.050;2023-04-27T01:27:04;100861.63;;;12.02;42.81
52291;BME280;39663;45.432;28.050;2023-04-27T01:27:36;100862.52;;;11.99;41.89
52291;BME280;39663;45.432;28.050;2023-04-27T01:28:07;100862.22;;;12.41;42.00
52291;BME280;39663;45.432;28.050;2023-04-27T01:28:39;100861.94;;;12.13;39.67
52291;BME280;39663;45.432;28.050;2023-04-27T01:29:10;100864.72;;;12.16;38.19
52291;BME280;39663;45.432;28.050;2023-04-27T01:29:41;100867.46;;;11.94;40.62
52291;BME280;39663;45.432;28.050;2023-04-27T01:30:13;100865.01;;;12.23;40.80
52291;BME280;39663;45.432;28.050;2023-04-27T01:30:44;100867.63;;;12.23;41.42
52291;BME280;39663;45.432;28.050;2023-04-27T01:31:16;100868.32;;;11.74;39.94
52291;BME280;39663;45.432;28.050;2023-04-27T01:31:47;100866.54;;;12.15;41.63
52291;BME280;39663;45.432;28.050;2023-04-27T01:32:19;100868.64;;;12.08;41.13
52291;BME280;39663;45.432;28.050;2023-04-27T01:32:50;100870.12;;;12.10;40.89
52291;BME280;39663;45.432;28.050;2023-04-27T01:33:22;100866.66;;;12.18;38.80
52291;BME280;39663;45.432;28.050;2023-04-27T01:33:53;100868.59;;;11.99;42.36
52291;BME280;39663;45.432;28.050;2023-04-27T01:34:25;100864.95;;;11.71;42.09
52291;BME280;39663;45.432;28.050;2023-04-27T01:34:57;100867.12;;;11.92;40.59
52291;BME280;39663;45.432;28.050;2023-04-27T01:35:28;100868.38;;;12.10;40.14
52291;BME280;39663;45.432;28.050;2023-04-27T01:35:59;100870.63;;;12.43;41.32
52291;BME280;39663;45.432;28.050;2023-04-27T01:36:31;100870.47;;;12.48;41.59
52291;BME280;39663;45.432;28.050;2023-04-27T01:37:03;100873.45;;;12.01;39.77
52291;BME280;39663;45.432;28.050;2023-04-27T01:37:34;100865.92;;;12.13;38.75
52291;BME280;39663;45.432;28.050;2023-04-27T01:38:06;100868.02;;;11.93;39.15
52291;BME280;39663;45.432;28.050;2023-04-27T01:38:37;100868.10;;;11.74;39.26
52291;BME280;39663;45.432;28.050;2023-04-27T01:39:09;100868.76;;;11.24;40.08
52291;BME280;39663;45.432;28.050;2023-04-27T01:39:41;100869.95;;;11.63;42.51
52291;BME280;39663;45.432;28.050;2023-04-27T01:40:13;100861.71;;;11.33;39.11
52291;BME280;39663;45.432;28.050;2023-04-27T01:40:44;100864.24;;;11.44;42.34
52291;BME280;39663;45.432;28.050;2023-04-27T01:41:16;100862.99;;;11.87;41.78
52291;BME280;39663;45.432;28.050;2023-04-27T01:41:47;100860.42;;;11.81;41.21
52291;BME280;39663;45.432;28.050;2023-04-27T01:42:19;100864.69;;;11.90;41.49
52291;BME280;39663;45.432;28.050;2023-04-27T01:42:50;100862.70;;;11.81;40.64
52291;BME280;39663;45.432;28.050;2023-04-27T01:43:22;100864.57;;;11.64;38.59
52291;BME280;39663;45.432;28.050;2023-04-27T01:43:53;100866.66;;;11.62;41.10
52291;BME280;39663;45.432;28.050;2023-04-27T01:44:24;100869.18;;;11.28;42.34
52291;BME280;39663;45.432;28.050;2023-04-27T01:44:55;100866.05;;;11.38;39.19
52291;BME280;39663;45.432;28.050;2023-04-27T01:45:27;100870.84;;;11.39;40.43
52291;BME280;39663;45.432;28.050;2023-04-27T01:46:05;100866.55;;;11.61;41.98
52291;BME280;39663;45.432;28.050;2023-04-27T01:46:36;100868.22;;;11.56;41.22
52291;BME280;39663;45.432;28.050;2023-04-27T01:47:08;100871.24;;;11.76;41.68
52291;BME280;39663;45.432;28.050;2023-04-27T01:47:39;100867.47;;;11.57;39.98
52291;BME280;39663;45.432;28.050;2023-04-27T01:48:11;100867.00;;;11.63;40.45
52291;BME280;39663;45.432;28.050;2023-04-27T01:48:42;100866.69;;;11.89;41.00
52291;BME280;39663;45.432;28.050;2023-04-27T01:49:14;100865.92;;;11.80;39.51
52291;BME280;39663;45.432;28.050;2023-04-27T01:49:45;100871.05;;;11.94;41.05
52291;BME280;39663;45.432;28.050;2023-04-27T01:50:17;100868.48;;;11.77;40.78
52291;BME280;39663;45.432;28.050;2023-04-27T01:50:48;100867.79;;;11.37;38.84
52291;BME280;39663;45.432;28.050;2023-04-27T01:51:19;100868.13;;;11.65;39.01
52291;BME280;39663;45.432;28.050;2023-04-27T01:51:51;100871.71;;;11.81;41.83
52291;BME280;39663;45.432;28.050;2023-04-27T01:52:22;100876.25;;;11.66;41.48
52291;BME280;39663;45.432;28.050;2023-04-27T01:52:53;100871.85;;;11.58;39.25
52291;BME280;39663;45.432;28.050;2023-04-27T01:53:25;100872.55;;;11.89;39.55
52291;BME280;39663;45.432;28.050;2023-04-27T01:53:56;100875.84;;;11.98;41.58
52291;BME280;39663;45.432;28.050;2023-04-27T01:54:28;100876.04;;;11.65;41.50
52291;BME280;39663;45.432;28.050;2023-04-27T01:54:59;100875.27;;;11.68;41.96
52291;BME280;39663;45.432;28.050;2023-04-27T01:55:31;100871.35;;;11.97;39.47
52291;BME280;39663;45.432;28.050;2023-04-27T01:56:03;100871.84;;;12.10;42.07
52291;BME280;39663;45.432;28.050;2023-04-27T01:56:34;100875.53;;;11.96;41.80
52291;BME280;39663;45.432;28.050;2023-04-27T01:57:05;100875.14;;;11.96;38.82
52291;BME280;39663;45.432;28.050;2023-04-27T01:57:37;100877.76;;;11.53;41.21
52291;BME280;39663;45.432;28.050;2023-04-27T01:58:08;100877.72;;;11.78;42.16
52291;BME280;39663;45.432;28.050;2023-04-27T01:58:40;100878.79;;;11.73;39.51
52291;BME280;39663;45.432;28.050;2023-04-27T01:59:11;100874.80;;;11.45;39.83
52291;BME280;39663;45.432;28.050;2023-04-27T01:59:43;100878.14;;;11.63;41.03
52291;BME280;39663;45.432;28.050;2023-04-27T02:00:15;100878.81;;;11.97;40.62
52291;BME280;39663;45.432;28.050;2023-04-27T02:00:46;100876.23;;;11.84;41.77
52291;BME280;39663;45.432;28.050;2023-04-27T02:01:18;100880.24;;;11.86;41.14
52291;BME280;39663;45.432;28.050;2023-04-27T02:01:49;100876.83;;;11.69;38.76
52291;BME280;39663;45.432;28.050;2023-04-27T02:02:20;100878.87;;;11.48;39.54
52291;BME280;39663;45.432;28.050;2023-04-27T02:02:52;100879.04;;;11.72;40.79
52291;BME280;39663;45.432;28.050;2023-04-27T02:03:24;100883.55;;;11.80;40.00
52291;BME280;39663;45.432;28.050;2023-04-27T02:03:55;100881.83;;;11.85;41.64
52291;BME280;39663;45.432;28.050;2023-04-27T02:04:27;100881.66;;;11.77;42.11
52291;BME280;39663;45.432;28.050;2023-04-27T02:04:58;100881.28;;;11.89;41.54
52291;BME280;39663;45.432;28.050;2023-04-27T02:05:29;100878.86;;;11.95;41.38
52291;BME280;39663;45.432;28.050;2023-04-27T02:06:01;100881.51;;;12.21;39.78
52291;BME280;39663;45.432;28.050;2023-04-27T02:06:33;100887.53;;;11.71;41.89
52291;BME280;39663;45.432;28.050;2023-04-27T02:07:04;100883.16;;;12.26;42.00
52291;BME280;39663;45.432;28.050;2023-04-27T02:07:35;100883.02;;;11.95;40.51
52291;BME280;39663;45.432;28.050;2023-04-27T02:08:07;100885.14;;;12.01;42.02
52291;BME280;39663;45.432;28.050;2023-04-27T02:08:38;100886.66;;;12.09;40.81
52291;BME280;39663;45.432;28.050;2023-04-27T02:09:10;100890.64;;;11.04;42.24
52291;BME280;39663;45.432;28.050;2023-04-27T02:09:41;100891.23;;;11.43;40.72
52291;BME280;39663;45.432;28.050;2023-04-27T02:10:12;100892.51;;;11.35;39.09
52291;BME280;39663;45.432;28.050;2023-04-27T02:10:44;100890.88;;;11.21;39.26
52291;BME280;39663;45.432;28.050;2023-04-27T02:11:15;100892.63;;;11.37;39.66
52291;BME280;39663;45.432;28.050;2023-04-27T02:11:46;100896.13;;;11.64;41.66
52291;BME280;39663;45.432;28.050;2023-04-27T02:12:18;100897.75;;;11.49;41.87
52291;BME280;39663;45.432;28.050;2023-04-27T02:12:49;100895.23;;;11.44;41.49
52291;BME280;39663;45.432;28.050;2023-04-27T02:13:21;100897.72;;;11.56;40.06
52291;BME280;39663;45.432;28.050;2023-04-27T02:13:52;100895.71;;;11.45;41.35
52291;BME280;39663;45.432;28.050;2023-04-27T02:14:24;100897.74;;;11.79;41.54
52291;BME280;39663;45.432;28.050;2023-04-27T02:14:55;100895.94;;;11.64;42.08
52291;BME280;39663;45.432;28.050;2023-04-27T02:15:27;100891.24;;;11.89;39.63
52291;BME280;39663;45.432;28.050;2023-04-27T02:15:58;100892.96;;;11.92;41.61
52291;BME280;39663;45.432;28.050;2023-04-27T02:16:29;100892.14;;;12.12;41.96
52291;BME280;39663;45.432;28.050;2023-04-27T02:17:01;100894.57;;;12.25;40.28
52291;BME280;39663;45.432;28.050;2023-04-27T02:17:33;100892.20;;;12.41;39.46
52291;BME280;39663;45.432;28.050;2023-04-27T02:18:05;100894.42;;;12.08;40.52
52291;BME280;39663;45.432;28.050;2023-04-27T02:18:36;100889.81;;;11.82;38.73
52291;BME280;39663;45.432;28.050;2023-04-27T02:19:08;100890.88;;;12.10;41.23
52291;BME280;39663;45.432;28.050;2023-04-27T02:19:39;100891.24;;;12.20;40.17
52291;BME280;39663;45.432;28.050;2023-04-27T02:20:11;100891.81;;;12.42;40.71
52291;BME280;39663;45.432;28.050;2023-04-27T02:20:42;100887.03;;;12.31;40.73
52291;BME280;39663;45.432;28.050;2023-04-27T02:21:14;100886.78;;;12.55;40.80
52291;BME280;39663;45.432;28.050;2023-04-27T02:21:45;100888.49;;;12.25;40.66
52291;BME280;39663;45.432;28.050;2023-04-27T02:22:16;100883.55;;;12.41;40.41
52291;BME280;39663;45.432;28.050;2023-04-27T02:22:48;100887.86;;;12.30;40.05
52291;BME280;39663;45.432;28.050;2023-04-27T02:23:19;100885.48;;;12.39;40.93
52291;BME280;39663;45.432;28.050;2023-04-27T02:23:51;100885.08;;;12.46;38.30
52291;BME280;39663;45.432;28.050;2023-04-27T02:24:23;100884.36;;;12.10;38.73
52291;BME280;39663;45.432;28.050;2023-04-27T02:24:54;100883.00;;;12.15;41.30
52291;BME280;39663;45.432;28.050;2023-04-27T02:25:26;100883.51;;;11.83;39.56
52291;BME280;39663;45.432;28.050;2023-04-27T02:25:57;100881.19;;;11.89;41.01
52291;BME280;39663;45.432;28.050;2023-04-27T02:26:28;100882.27;;;11.70;41.19
52291;BME280;39663;45.432;28.050;2023-04-27T02:27:00;100881.89;;;11.81;39.90
52291;BME280;39663;45.432;28.050;2023-04-27T02:27:31;100880.53;;;11.79;40.70
52291;BME280;39663;45.432;28.050;2023-04-27T02:28:03;100882.09;;;11.54;39.47
52291;BME280;39663;45.432;28.050;2023-04-27T02:28:34;100883.10;;;11.34;41.63
52291;BME280;39663;45.432;28.050;2023-04-27T02:29:06;100882.70;;;11.52;41.34
52291;BME280;39663;45.432;28.050;2023-04-27T02:29:37;100882.72;;;12.04;42.54
52291;BME280;39663;45.432;28.050;2023-04-27T02:30:10;100873.15;;;11.91;40.45
52291;BME280;39663;45.432;28.050;2023-04-27T02:30:41;100877.10;;;11.89;40.34
52291;BME280;39663;45.432;28.050;2023-04-27T02:31:13;100878.43;;;11.87;40.40
52291;BME280;39663;45.432;28.050;2023-04-27T02:31:45;100878.52;;;11.57;40.55
52291;BME280;39663;45.432;28.050;2023-04-27T02:32:16;100877.58;;;11.42;40.64
52291;BME280;39663;45.432;28.050;2023-04-27T02:32:48;100879.20;;;11.61;42.27
52291;BME280;39663;45.432;28.050;2023-04-27T02:33:20;100875.31;;;11.95;41.60
52291;BME280;39663;45.432;28.050;2023-04-27T02:33:51;100876.22;;;11.85;39.63
52291;BME280;39663;45.432;28.050;2023-04-27T02:34:23;100874.96;;;12.10;40.53
52291;BME280;39663;45.432;28.050;2023-04-27T02:34:54;100880.83;;;11.91;39.57
52291;BME280;39663;45.432;28.050;2023-04-27T02:35:25;100881.52;;;11.82;40.97
52291;BME280;39663;45.432;28.050;2023-04-27T02:35:57;100882.38;;;11.50;40.62
52291;BME280;39663;45.432;28.050;2023-04-27T02:36:28;100878.51;;;11.82;42.47
52291;BME280;39663;45.432;28.050;2023-04-27T02:37:00;100880.96;;;11.82;41.54
52291;BME280;39663;45.432;28.050;2023-04-27T02:37:31;100882.59;;;11.89;41.53
52291;BME280;39663;45.432;28.050;2023-04-27T02:38:03;100881.80;;;11.91;41.84
52291;BME280;39663;45.432;28.050;2023-04-27T02:38:34;100879.79;;;11.82;42.42
52291;BME280;39663;45.432;28.050;2023-04-27T02:39:05;100882.71;;;12.05;41.59
52291;BME280;39663;45.432;28.050;2023-04-27T02:39:37;100881.67;;;11.73;42.40
52291;BME280;39663;45.432;28.050;2023-04-27T02:40:09;100881.74;;;12.12;42.34
52291;BME280;39663;45.432;28.050;2023-04-27T02:40:40;100881.24;;;11.83;39.94
52291;BME280;39663;45.432;28.050;2023-04-27T02:41:12;100884.56;;;11.47;40.07
52291;BME280;39663;45.432;28.050;2023-04-27T02:41:43;100887.09;;;11.75;42.85
52291;BME280;39663;45.432;28.050;2023-04-27T02:42:15;100885.38;;;11.82;39.65
52291;BME280;39663;45.432;28.050;2023-04-27T02:42:46;100882.20;;;11.20;41.43
52291;BME280;39663;45.432;28.050;2023-04-27T02:43:21;100885.50;;;11.31;41.65
52291;BME280;39663;45.432;28.050;2023-04-27T02:43:52;100890.58;;;11.86;42.71
52291;BME280;39663;45.432;28.050;2023-04-27T02:44:24;100888.44;;;11.60;41.05
52291;BME280;39663;45.432;28.050;2023-04-27T02:44:55;100890.86;;;12.06;42.22
52291;BME280;39663;45.432;28.050;2023-04-27T02:45:27;100893.95;;;12.01;40.17
52291;BME280;39663;45.432;28.050;2023-04-27T02:46:02;100892.10;;;11.66;42.52